createdAt,value
2023-03-27T00:01:07.995Z,1.40
2023-03-27T00:03:34.525Z,1.40
2023-03-27T00:06:05.472Z,1.50
2023-03-27T00:08:32.994Z,1.73
2023-03-27T00:11:00.929Z,1.20
2023-03-27T00:13:28.602Z,1.83
2023-03-27T00:15:56.963Z,1.60
2023-03-27T00:18:24.252Z,1.40
2023-03-27T00:20:51.629Z,1.30
2023-03-27T00:23:19.956Z,1.40
2023-03-27T00:25:49.919Z,1.70
2023-03-27T00:28:20.233Z,1.10
2023-03-27T00:30:48.291Z,1.33
2023-03-27T00:33:14.971Z,1.30
2023-03-27T00:35:46.757Z,1.67
2023-03-27T00:38:13.995Z,1.20
2023-03-27T00:40:41.254Z,1.00
2023-03-27T00:43:26.215Z,1.27
2023-03-27T00:45:58.179Z,1.10
2023-03-27T00:48:25.499Z,1.37
2023-03-27T00:50:52.237Z,0.90
2023-03-27T00:53:25.193Z,0.90
2023-03-27T00:55:53.649Z,0.90
2023-03-27T00:58:23.234Z,1.00
2023-03-27T01:00:51.688Z,1.10
2023-03-27T01:03:19.061Z,1.00
2023-03-27T01:05:46.059Z,1.00
2023-03-27T01:08:12.497Z,1.10
2023-03-27T01:10:44.888Z,0.93
2023-03-27T01:13:23.333Z,1.00
2023-03-27T01:15:57.250Z,0.57
2023-03-27T01:18:33.777Z,0.77
2023-03-27T01:21:37.304Z,1.10
2023-03-27T01:24:28.419Z,0.60
2023-03-27T01:27:12.421Z,0.57
2023-03-27T01:29:47.058Z,0.90
2023-03-27T01:32:29.683Z,0.60
2023-03-27T01:35:14.561Z,0.70
2023-03-27T01:38:03.689Z,0.87
2023-03-27T01:40:34.201Z,0.80
2023-03-27T01:43:07.869Z,0.80
2023-03-27T01:46:18.729Z,1.10
2023-03-27T01:48:49.422Z,0.67
2023-03-27T01:51:38.557Z,0.53
2023-03-27T01:54:15.385Z,0.60
2023-03-27T01:56:53.697Z,0.60
2023-03-27T01:59:23.341Z,0.60
2023-03-27T02:01:56.328Z,0.60
2023-03-27T02:04:27.307Z,0.73
2023-03-27T02:07:02.969Z,0.70
2023-03-27T02:09:41.356Z,0.80
2023-03-27T02:12:15.310Z,0.60
2023-03-27T02:14:55.356Z,0.70
2023-03-27T02:17:26.098Z,0.90
2023-03-27T02:19:57.868Z,0.80
2023-03-27T02:22:37.270Z,0.70
2023-03-27T02:25:22.870Z,0.70
2023-03-27T02:27:52.783Z,0.83
2023-03-27T02:30:23.907Z,0.73
2023-03-27T02:32:58.859Z,0.90
2023-03-27T02:35:45.223Z,0.60
2023-03-27T02:38:28.532Z,0.77
2023-03-27T02:41:28.626Z,0.70
2023-03-27T02:44:11.122Z,0.90
2023-03-27T02:46:43.603Z,1.00
2023-03-27T02:49:16.381Z,0.70
2023-03-27T02:51:46.380Z,0.80
2023-03-27T02:54:15.928Z,0.97
2023-03-27T02:56:51.926Z,0.83
2023-03-27T02:59:25.637Z,0.77
2023-03-27T03:01:53.023Z,0.80
2023-03-27T03:04:24.657Z,1.07
2023-03-27T03:06:51.191Z,0.90
2023-03-27T03:09:19.068Z,0.87
2023-03-27T03:11:48.558Z,1.30
2023-03-27T03:14:15.584Z,1.00
2023-03-27T03:16:42.050Z,0.83
2023-03-27T03:19:08.809Z,1.10
2023-03-27T03:21:36.199Z,1.00
2023-03-27T03:24:02.612Z,1.13
2023-03-27T03:26:30.017Z,1.17
2023-03-27T03:29:01.393Z,0.73
2023-03-27T03:31:42.767Z,1.07
2023-03-27T03:34:18.309Z,1.00
2023-03-27T03:36:49.065Z,0.90
2023-03-27T03:39:16.830Z,0.80
2023-03-27T03:41:43.282Z,0.87
2023-03-27T03:44:10.348Z,1.20
2023-03-27T03:46:36.815Z,0.90
2023-03-27T03:49:04.824Z,0.90
2023-03-27T03:51:31.949Z,1.00
2023-03-27T03:53:58.373Z,0.83
2023-03-27T03:56:26.089Z,1.00
2023-03-27T03:58:52.578Z,0.83
2023-03-27T04:01:20.609Z,1.00
2023-03-27T04:03:47.857Z,1.00
2023-03-27T04:06:17.458Z,1.10
2023-03-27T04:08:47.703Z,1.10
2023-03-27T04:11:14.144Z,1.27
2023-03-27T04:13:40.565Z,1.20
2023-03-27T04:16:08.066Z,1.10
2023-03-27T04:18:35.239Z,1.10
2023-03-27T04:21:02.131Z,1.50
2023-03-27T04:23:33.363Z,1.30
2023-03-27T04:26:03.241Z,1.17
2023-03-27T04:28:34.177Z,0.90
2023-03-27T04:31:07.828Z,1.00
2023-03-27T04:33:34.900Z,1.10
2023-03-27T04:36:05.678Z,1.23
2023-03-27T04:38:36.646Z,1.00
2023-03-27T04:41:03.762Z,0.80
2023-03-27T04:43:30.726Z,0.97
2023-03-27T04:45:57.207Z,1.03
2023-03-27T04:48:23.606Z,0.70
2023-03-27T04:50:50.013Z,0.97
2023-03-27T04:53:17.905Z,0.90
2023-03-27T04:55:45.787Z,0.87
2023-03-27T04:58:12.754Z,1.07
2023-03-27T05:00:40.163Z,1.20
2023-03-27T05:03:06.774Z,0.80
2023-03-27T05:05:34.723Z,1.00
2023-03-27T05:08:01.296Z,0.93
2023-03-27T05:10:27.698Z,0.80
2023-03-27T05:12:55.816Z,1.17
2023-03-27T05:15:23.673Z,1.90
2023-03-27T05:17:54.493Z,1.20
2023-03-27T05:20:22.142Z,1.63
2023-03-27T05:22:49.322Z,1.60
2023-03-27T05:25:15.923Z,2.20
2023-03-27T05:27:46.667Z,1.40
2023-03-27T05:30:23.587Z,1.50
2023-03-27T05:32:52.082Z,1.20
2023-03-27T05:35:21.493Z,1.00
2023-03-27T05:37:49.380Z,1.00
2023-03-27T05:40:17.199Z,0.77
2023-03-27T05:42:46.845Z,1.20
2023-03-27T05:45:14.176Z,1.00
2023-03-27T05:47:45.886Z,1.00
2023-03-27T05:50:12.766Z,1.20
2023-03-27T05:52:39.169Z,0.90
2023-03-27T05:55:06.694Z,1.20
2023-03-27T05:57:33.116Z,1.23
2023-03-27T06:00:00.208Z,0.97
2023-03-27T06:02:27.700Z,1.10
2023-03-27T06:04:54.253Z,1.40
2023-03-27T06:07:20.696Z,1.20
2023-03-27T06:09:47.102Z,1.17
2023-03-27T06:12:13.518Z,1.20
2023-03-27T06:14:39.945Z,1.03
2023-03-27T06:17:06.449Z,0.77
2023-03-27T06:19:32.916Z,1.00
2023-03-27T06:21:59.345Z,1.13
2023-03-27T06:24:26.305Z,0.70
2023-03-27T06:26:53.035Z,1.37
2023-03-27T06:29:19.438Z,1.40
2023-03-27T06:31:45.922Z,1.00
2023-03-27T06:34:14.858Z,1.33
2023-03-27T06:36:41.547Z,1.80
2023-03-27T06:39:08.303Z,1.60
2023-03-27T06:41:34.727Z,2.03
2023-03-27T06:44:01.494Z,1.67
2023-03-27T06:46:42.713Z,1.50
2023-03-27T06:49:11.548Z,1.60
2023-03-27T06:51:37.957Z,1.53
2023-03-27T06:54:04.639Z,1.33
2023-03-27T06:56:31.392Z,1.40
2023-03-27T06:58:57.865Z,1.63
2023-03-27T07:01:24.318Z,1.13
2023-03-27T07:03:50.751Z,1.30
2023-03-27T07:06:19.225Z,1.40
2023-03-27T07:08:47.749Z,1.20
2023-03-27T07:11:15.689Z,1.20
2023-03-27T07:13:42.301Z,1.30
2023-03-27T07:16:12.049Z,1.20
2023-03-27T07:18:38.684Z,0.97
2023-03-27T07:21:05.283Z,1.10
2023-03-27T07:23:31.706Z,1.10
2023-03-27T07:25:59.440Z,1.10
2023-03-27T07:28:26.170Z,1.60
2023-03-27T07:30:52.785Z,0.90
2023-03-27T07:33:19.657Z,1.50
2023-03-27T07:35:47.247Z,1.23
2023-03-27T07:38:14.311Z,1.60
2023-03-27T07:40:42.830Z,1.30
2023-03-27T07:43:09.290Z,3.70
2023-03-27T07:45:36.001Z,4.60
2023-03-27T07:48:09.849Z,1.90
2023-03-27T07:50:37.528Z,1.33
2023-03-27T07:53:06.212Z,1.40
2023-03-27T07:55:32.690Z,1.00
2023-03-27T07:58:02.879Z,1.30
2023-03-27T08:00:31.068Z,1.30
2023-03-27T08:03:11.527Z,1.30
2023-03-27T08:05:38.429Z,1.20
2023-03-27T08:08:05.309Z,1.73
2023-03-27T08:10:31.772Z,1.23
2023-03-27T08:12:58.285Z,1.13
2023-03-27T08:15:25.166Z,1.23
2023-03-27T08:17:55.228Z,1.33
2023-03-27T08:20:23.253Z,1.83
2023-03-27T08:22:52.903Z,1.07
2023-03-27T08:25:22.181Z,1.53
2023-03-27T08:27:48.649Z,1.47
2023-03-27T08:30:17.076Z,1.30
2023-03-27T08:32:43.932Z,1.33
2023-03-27T08:35:10.596Z,1.40
2023-03-27T08:37:36.996Z,1.23
2023-03-27T08:40:08.714Z,1.13
2023-03-27T08:42:37.297Z,1.40
2023-03-27T08:45:21.058Z,1.30
2023-03-27T08:47:53.788Z,1.27
2023-03-27T08:50:36.701Z,1.40
2023-03-27T08:53:05.517Z,1.10
2023-03-27T08:55:42.889Z,1.33
2023-03-27T08:58:18.418Z,0.70
2023-03-27T09:01:00.120Z,1.20
2023-03-27T09:03:35.721Z,1.20
2023-03-27T09:06:08.519Z,1.20
2023-03-27T09:08:45.848Z,1.53
2023-03-27T09:11:34.924Z,1.30
2023-03-27T09:14:07.404Z,1.37
2023-03-27T09:16:49.293Z,1.20
2023-03-27T09:19:40.554Z,1.30
2023-03-27T09:22:12.024Z,0.70
2023-03-27T09:24:44.539Z,1.43
2023-03-27T09:27:19.835Z,1.00
2023-03-27T09:30:05.840Z,1.30
2023-03-27T09:32:33.348Z,1.07
2023-03-27T09:35:00.591Z,1.20
2023-03-27T09:37:27.520Z,1.00
2023-03-27T09:39:55.067Z,1.23
2023-03-27T09:42:26.804Z,1.07
2023-03-27T09:44:58.573Z,0.90
2023-03-27T09:47:35.480Z,0.97
2023-03-27T09:50:25.584Z,1.10
2023-03-27T09:53:07.108Z,0.60
2023-03-27T09:55:34.554Z,1.10
2023-03-27T09:58:15.210Z,0.87
2023-03-27T10:00:41.689Z,1.10
2023-03-27T10:03:16.445Z,1.05
2023-03-27T10:05:44.045Z,1.20
2023-03-27T10:08:37.704Z,0.90
2023-03-27T10:11:07.876Z,1.00
2023-03-27T10:13:34.891Z,0.60
2023-03-27T10:16:04.621Z,1.08
2023-03-27T10:18:32.979Z,0.90
2023-03-27T10:21:02.386Z,1.10
2023-03-27T10:23:39.617Z,1.17
2023-03-27T10:26:08.347Z,0.90
2023-03-27T10:28:36.424Z,0.70
2023-03-27T10:31:06.587Z,0.60
2023-03-27T10:33:38.462Z,0.80
2023-03-27T10:36:07.062Z,0.93
2023-03-27T10:38:35.704Z,0.80
2023-03-27T10:41:06.939Z,0.80
2023-03-27T10:43:40.891Z,0.95
2023-03-27T10:46:12.500Z,0.60
2023-03-27T10:49:09.871Z,0.88
2023-03-27T10:52:02.003Z,0.65
2023-03-27T10:54:51.261Z,0.65
2023-03-27T10:57:21.741Z,0.70
2023-03-27T11:00:19.942Z,0.80
2023-03-27T11:02:55.390Z,0.90
2023-03-27T11:05:26.335Z,1.10
2023-03-27T11:07:57.222Z,0.75
2023-03-27T11:10:33.134Z,1.35
2023-03-27T11:13:22.988Z,0.70
2023-03-27T11:15:54.084Z,0.80
2023-03-27T11:18:24.574Z,0.73
2023-03-27T11:20:59.531Z,0.97
2023-03-27T11:23:36.713Z,1.17
2023-03-27T11:26:05.984Z,0.83
2023-03-27T11:28:53.111Z,1.13
2023-03-27T11:31:46.825Z,1.07
2023-03-27T11:34:28.942Z,0.70
2023-03-27T11:37:05.949Z,0.40
2023-03-27T11:40:05.064Z,0.50
2023-03-27T11:42:42.595Z,0.50
2023-03-27T11:45:13.968Z,0.50
2023-03-27T11:48:18.091Z,0.50
2023-03-27T11:50:53.191Z,0.20
2023-03-27T11:53:45.833Z,0.40
2023-03-27T11:56:12.165Z,0.43
2023-03-27T11:59:07.692Z,0.57
2023-03-27T12:01:39.760Z,0.30
2023-03-27T12:04:11.267Z,0.50
2023-03-27T12:06:50.978Z,0.50
2023-03-27T12:09:29.063Z,0.47
2023-03-27T12:12:21.451Z,0.60
2023-03-27T12:15:06.648Z,0.60
2023-03-27T12:17:54.538Z,0.53
2023-03-27T12:20:41.631Z,0.57
2023-03-27T12:23:28.077Z,0.50
2023-03-27T12:26:15.976Z,0.40
2023-03-27T12:29:02.113Z,0.80
2023-03-27T12:31:47.472Z,0.40
2023-03-27T12:34:22.848Z,0.90
2023-03-27T12:36:49.595Z,0.90
2023-03-27T12:39:22.294Z,1.00
2023-03-27T12:41:48.751Z,0.80
2023-03-27T12:44:18.411Z,1.30
2023-03-27T12:47:05.691Z,0.80
2023-03-27T12:49:48.200Z,1.00
2023-03-27T12:52:15.572Z,0.80
2023-03-27T12:55:06.293Z,0.85
2023-03-27T12:57:41.998Z,1.20
2023-03-27T13:00:19.565Z,0.60
2023-03-27T13:03:26.582Z,0.67
2023-03-27T13:06:15.624Z,0.67
2023-03-27T13:09:09.581Z,0.70
2023-03-27T13:11:41.997Z,0.90
2023-03-27T13:14:18.468Z,0.70
2023-03-27T13:17:11.064Z,0.40
2023-03-27T13:19:46.404Z,0.65
2023-03-27T13:22:48.081Z,0.63
2023-03-27T13:25:28.061Z,0.60
2023-03-27T13:28:11.831Z,0.50
2023-03-27T13:30:58.936Z,0.68
2023-03-27T13:33:25.263Z,0.60
2023-03-27T13:35:57.979Z,0.60
2023-03-27T13:38:44.858Z,0.80
2023-03-27T13:41:39.311Z,0.60
2023-03-27T13:44:10.863Z,0.52
2023-03-27T13:46:39.346Z,0.80
2023-03-27T13:49:21.116Z,0.70
2023-03-27T13:52:08.917Z,0.60
2023-03-27T13:54:47.620Z,0.68
2023-03-27T13:57:29.044Z,0.70
2023-03-27T14:00:33.176Z,0.57
2023-03-27T14:03:26.636Z,0.80
2023-03-27T14:06:20.208Z,1.00
2023-03-27T14:09:07.838Z,0.40
2023-03-27T14:11:35.601Z,0.60
2023-03-27T14:14:42.214Z,0.70
2023-03-27T14:17:32.594Z,0.70
2023-03-27T14:20:11.449Z,0.70
2023-03-27T14:22:42.908Z,0.47
2023-03-27T14:25:15.321Z,0.60
2023-03-27T14:27:43.572Z,0.50
2023-03-27T14:30:14.232Z,0.60
2023-03-27T14:32:40.962Z,0.30
2023-03-27T14:35:27.525Z,0.50
2023-03-27T14:37:56.025Z,0.30
2023-03-27T14:40:35.539Z,0.20
2023-03-27T14:43:03.357Z,0.30
2023-03-27T14:45:33.254Z,0.60
2023-03-27T14:48:11.831Z,0.30
2023-03-27T14:50:38.311Z,0.50
2023-03-27T14:53:10.350Z,0.37
2023-03-27T14:55:38.307Z,0.40
2023-03-27T14:58:11.289Z,0.53
2023-03-27T15:00:40.440Z,0.80
2023-03-27T15:03:14.981Z,0.80
2023-03-27T15:05:57.537Z,0.50
2023-03-27T15:08:25.834Z,0.70
2023-03-27T15:10:54.055Z,0.50
2023-03-27T15:13:23.839Z,0.60
2023-03-27T15:15:50.818Z,0.50
2023-03-27T15:18:28.089Z,0.90
2023-03-27T15:20:56.661Z,0.40
2023-03-27T15:23:31.345Z,1.70
2023-03-27T15:26:25.558Z,3.93
2023-03-27T15:29:13.718Z,0.70
2023-03-27T15:31:43.291Z,0.60
2023-03-27T15:34:34.401Z,0.50
2023-03-27T15:37:05.992Z,0.50
2023-03-27T15:39:33.406Z,0.90
2023-03-27T15:42:11.850Z,0.90
2023-03-27T15:44:40.048Z,0.60
2023-03-27T15:47:23.988Z,0.80
2023-03-27T15:50:12.428Z,0.60
2023-03-27T15:52:47.138Z,0.50
2023-03-27T15:55:13.673Z,0.50
2023-03-27T15:57:40.965Z,0.90
2023-03-27T16:00:13.030Z,0.50
2023-03-27T16:02:39.877Z,0.70
2023-03-27T16:05:06.878Z,0.70
2023-03-27T16:07:45.045Z,0.50
2023-03-27T16:10:12.331Z,0.60
2023-03-27T16:12:55.873Z,0.50
2023-03-27T16:15:36.203Z,0.30
2023-03-27T16:18:13.610Z,0.30
2023-03-27T16:20:40.077Z,0.50
2023-03-27T16:23:06.513Z,0.50
2023-03-27T16:25:32.983Z,0.30
2023-03-27T16:27:59.424Z,0.57
2023-03-27T16:30:35.830Z,0.60
2023-03-27T16:33:03.321Z,0.50
2023-03-27T16:35:32.373Z,0.30
2023-03-27T16:37:58.893Z,0.67
2023-03-27T16:40:25.319Z,0.50
2023-03-27T16:42:51.737Z,0.50
2023-03-27T16:45:18.175Z,0.50
2023-03-27T16:47:46.835Z,0.63
2023-03-27T16:50:20.338Z,0.50
2023-03-27T16:52:46.736Z,0.50
2023-03-27T16:55:13.870Z,0.47
2023-03-27T16:57:41.706Z,0.40
2023-03-27T17:00:09.692Z,0.50
2023-03-27T17:02:38.995Z,0.60
2023-03-27T17:05:07.695Z,0.80
2023-03-27T17:07:35.343Z,0.87
2023-03-27T17:10:02.201Z,0.50
2023-03-27T17:12:29.792Z,0.67
2023-03-27T17:14:56.693Z,0.90
2023-03-27T17:17:23.678Z,0.60
2023-03-27T17:19:50.396Z,0.57
2023-03-27T17:22:16.903Z,0.60
2023-03-27T17:24:55.283Z,0.63
2023-03-27T17:27:22.602Z,1.03
2023-03-27T17:29:49.010Z,0.70
2023-03-27T17:32:15.419Z,0.70
2023-03-27T17:34:42.582Z,0.90
2023-03-27T17:37:09.003Z,0.87
2023-03-27T17:39:35.620Z,0.87
2023-03-27T17:42:02.057Z,0.80
2023-03-27T17:44:28.461Z,0.73
2023-03-27T17:46:54.989Z,0.80
2023-03-27T17:49:21.413Z,1.70
2023-03-27T17:51:47.860Z,3.30
2023-03-27T17:54:14.289Z,1.50
2023-03-27T17:56:40.943Z,1.80
2023-03-27T17:59:10.007Z,1.10
2023-03-27T18:01:36.499Z,1.00
2023-03-27T18:04:03.529Z,1.70
2023-03-27T18:06:30.169Z,1.57
2023-03-27T18:08:56.671Z,1.70
2023-03-27T18:11:23.158Z,2.20
2023-03-27T18:13:53.064Z,1.00
2023-03-27T18:16:20.025Z,0.63
2023-03-27T18:18:47.373Z,0.57
2023-03-27T18:21:14.993Z,0.60
2023-03-27T18:23:45.781Z,0.50
2023-03-27T18:26:12.822Z,0.77
2023-03-27T18:28:39.237Z,0.77
2023-03-27T18:31:08.465Z,0.70
2023-03-27T18:33:35.199Z,0.63
2023-03-27T18:36:02.159Z,0.40
2023-03-27T18:38:29.019Z,0.97
2023-03-27T18:40:56.823Z,0.60
2023-03-27T18:43:24.015Z,0.63
2023-03-27T18:45:58.389Z,0.60
2023-03-27T18:48:25.736Z,0.80
2023-03-27T18:50:56.034Z,0.90
2023-03-27T18:53:22.685Z,1.00
2023-03-27T18:55:50.824Z,0.60
2023-03-27T18:58:17.576Z,0.83
2023-03-27T19:00:44.405Z,0.97
2023-03-27T19:03:15.441Z,0.80
2023-03-27T19:05:41.920Z,0.83
2023-03-27T19:08:08.373Z,0.90
2023-03-27T19:10:35.835Z,0.80
2023-03-27T19:13:02.552Z,0.93
2023-03-27T19:15:29.533Z,1.27
2023-03-27T19:17:56.139Z,0.97
2023-03-27T19:20:22.902Z,0.87
2023-03-27T19:22:49.410Z,0.80
2023-03-27T19:25:16.426Z,1.10
2023-03-27T19:27:43.165Z,1.00
2023-03-27T19:30:11.480Z,0.80
2023-03-27T19:32:38.499Z,0.83
2023-03-27T19:35:05.368Z,0.70
2023-03-27T19:37:32.014Z,1.00
2023-03-27T19:39:59.540Z,0.80
2023-03-27T19:42:26.846Z,1.40
2023-03-27T19:44:53.561Z,0.80
2023-03-27T19:47:20.044Z,0.80
2023-03-27T19:49:46.967Z,0.77
2023-03-27T19:52:16.598Z,1.07
2023-03-27T19:54:43.143Z,0.70
2023-03-27T19:57:09.671Z,0.70
2023-03-27T19:59:36.289Z,1.00
2023-03-27T20:02:02.789Z,0.97
2023-03-27T20:04:29.236Z,0.90
2023-03-27T20:06:55.642Z,0.97
2023-03-27T20:09:22.070Z,0.90
2023-03-27T20:11:48.600Z,0.87
2023-03-27T20:14:15.357Z,0.83
2023-03-27T20:16:41.777Z,0.80
2023-03-27T20:19:09.191Z,1.23
2023-03-27T20:21:38.949Z,1.10
2023-03-27T20:24:06.752Z,1.27
2023-03-27T20:26:39.190Z,0.67
2023-03-27T20:29:11.336Z,0.90
2023-03-27T20:31:38.275Z,1.00
2023-03-27T20:34:06.466Z,1.00
2023-03-27T20:36:34.916Z,0.80
2023-03-27T20:39:04.652Z,0.60
2023-03-27T20:41:31.139Z,1.03
2023-03-27T20:43:58.909Z,1.10
2023-03-27T20:46:30.440Z,1.00
2023-03-27T20:48:57.055Z,0.80
2023-03-27T20:51:24.633Z,1.00
2023-03-27T20:53:56.037Z,1.50
2023-03-27T20:56:23.670Z,1.00
2023-03-27T20:58:51.435Z,1.40
2023-03-27T21:01:19.382Z,1.30
2023-03-27T21:03:49.361Z,1.07
2023-03-27T21:06:18.560Z,1.03
2023-03-27T21:08:45.324Z,0.77
2023-03-27T21:11:11.796Z,1.00
2023-03-27T21:13:38.215Z,1.10
2023-03-27T21:16:05.310Z,0.60
2023-03-27T21:18:31.729Z,1.10
2023-03-27T21:20:58.144Z,0.77
2023-03-27T21:23:24.550Z,0.77
2023-03-27T21:25:51.704Z,1.23
2023-03-27T21:28:18.251Z,1.27
2023-03-27T21:30:47.085Z,1.00
2023-03-27T21:33:16.038Z,1.97
2023-03-27T21:35:45.700Z,1.10
2023-03-27T21:38:12.903Z,0.80
2023-03-27T21:40:39.620Z,0.90
2023-03-27T21:43:06.758Z,0.87
2023-03-27T21:45:33.194Z,0.83
2023-03-27T21:47:59.922Z,0.93
2023-03-27T21:50:26.340Z,1.20
2023-03-27T21:52:52.780Z,1.20
2023-03-27T21:55:20.261Z,1.10
2023-03-27T21:57:46.709Z,1.10
2023-03-27T22:00:14.433Z,1.07
2023-03-27T22:02:41.353Z,1.17
2023-03-27T22:05:08.448Z,1.47
2023-03-27T22:07:34.927Z,1.07
2023-03-27T22:10:01.515Z,1.17
2023-03-27T22:12:27.998Z,0.97
2023-03-27T22:14:54.401Z,1.50
2023-03-27T22:17:20.914Z,1.73
2023-03-27T22:19:47.334Z,1.73
2023-03-27T22:22:13.798Z,1.30
2023-03-27T22:24:40.316Z,1.60
2023-03-27T22:27:06.732Z,1.07
2023-03-27T22:29:33.743Z,1.23
2023-03-27T22:32:00.353Z,1.30
2023-03-27T22:34:27.152Z,1.83
2023-03-27T22:36:53.708Z,1.47
2023-03-27T22:39:20.235Z,1.50
2023-03-27T22:41:46.680Z,1.33
2023-03-27T22:44:13.082Z,1.50
2023-03-27T22:46:39.560Z,1.30
2023-03-27T22:49:06.132Z,1.07
2023-03-27T22:51:32.582Z,1.30
2023-03-27T22:53:59.097Z,1.30
2023-03-27T22:56:25.789Z,1.43
2023-03-27T22:58:52.207Z,1.50
2023-03-27T23:01:18.761Z,1.30
2023-03-27T23:03:45.358Z,1.83
2023-03-27T23:06:19.874Z,1.17
2023-03-27T23:08:47.315Z,1.10
2023-03-27T23:11:14.223Z,1.30
2023-03-27T23:13:41.133Z,1.47
2023-03-27T23:16:08.616Z,1.43
2023-03-27T23:18:35.305Z,1.60
2023-03-27T23:21:04.261Z,0.93
2023-03-27T23:23:31.600Z,1.30
2023-03-27T23:25:58.767Z,1.73
2023-03-27T23:28:26.488Z,1.40
2023-03-27T23:30:58.861Z,1.30
2023-03-27T23:33:25.958Z,1.50
2023-03-27T23:35:53.931Z,1.70
2023-03-27T23:38:20.488Z,1.50
2023-03-27T23:40:46.921Z,1.37
2023-03-27T23:43:13.366Z,1.57
2023-03-27T23:45:39.814Z,1.50
2023-03-27T23:48:06.226Z,1.53
2023-03-27T23:50:32.668Z,1.60
2023-03-27T23:52:59.121Z,1.97
2023-03-27T23:55:25.570Z,1.53
2023-03-27T23:57:51.986Z,1.43
